Gwinner, ND

2:32 PM CDT on September 20, 2017 (GMT -0500)
Gwinner-melroe

Weather History for KGWR - December, 2012

Change the Weather History Date:

Monday, December 24, 2012

  Actual Average (KP67) Record (KP67)
Temperature  
Mean Temperature 0 °F -  
Max Temperature 5 °F 16 °F 30 °F (1997)
Min Temperature -5 °F 3 °F -17 °F (1996)
Degree Days  
Heating Degree Days 65    
Moisture  
Dew Point -7 °F    
Average Humidity 72    
Maximum Humidity 85    
Minimum Humidity 66    
Precipitation  
Precipitation 0.00 in - - ()
Sea Level Pressure  
Sea Level Pressure 30.25 in    
Wind  
Wind Speed 13 mph (NNW)    
Max Wind Speed 17 mph    
Max Gust Speed -    
Visibility 9 miles    
Events      
Averages and records for this station are not official NWS values.
T = Trace of Precipitation, MM = Missing Value Source: NWS Daily Summary

Daily Weather History Graph

Daily Weather History Graph

Search for Another Location

Airport or City:

Trip Planner

Search our weather history database for the weather conditions in past years. The results will help you decide how hot, cold, wet, or windy it might be!

Date:

Astronomy

Dec. 24, 2012 Rise Set
Actual Time 8:11 AM CST 4:49 PM CST
Civil Twilight 7:37 AM CST 5:23 PM CST
Nautical Twilight 6:58 AM CST 6:02 PM CST
Astronomical Twilight 6:22 AM CST 6:38 PM CST
Moon 2:21 PM CST (12/24) 4:47 AM CST (12/24)
Length of Visible Light 9h 46m
Length of Day
8h 37m
Waxing Gibbous, 88% of the Moon is Illuminated
Dec 24
Waxing Gibbous
Dec 28
Full
Jan 4
Last Quarter
Jan 11
New
Jan 18
First Quarter

Hourly Weather History & Observations

Time (CST) Temp. Windchill Dew Point Humidity Pressure Visibility Wind Dir Wind Speed Gust Speed Precip Events Conditions
12:15 AM 5.0 °F -12.3 °F 1.4 °F 85% 30.11 in 3.0 mi North 13.8 mph - 0.00 in   Overcast
12:35 AM 5.0 °F -13.0 °F 1.4 °F 85% 30.11 in 2.5 mi North 15.0 mph - 0.00 in   Overcast
12:55 AM 5.0 °F -13.6 °F 1.4 °F 85% 30.11 in 3.0 mi North 16.1 mph - 0.00 in   Overcast
1:15 AM 5.0 °F -13.6 °F -0.4 °F 78% 30.11 in 2.0 mi North 16.1 mph - 0.00 in   Overcast
1:35 AM 5.0 °F -12.3 °F -0.4 °F 78% 30.11 in 3.0 mi North 13.8 mph - 0.00 in   Overcast
1:55 AM 5.0 °F -11.6 °F -0.4 °F 78% 30.12 in 4.0 mi North 12.7 mph - 0.00 in   Overcast
2:15 AM 3.2 °F -14.6 °F -0.4 °F 85% 30.12 in 5.0 mi North 13.8 mph - 0.00 in   Overcast
2:35 AM 3.2 °F -15.9 °F -2.2 °F 78% 30.14 in 9.0 mi North 16.1 mph - 0.00 in   Mostly Cloudy
2:55 AM 3.2 °F -15.3 °F -2.2 °F 78% 30.15 in 7.0 mi North 15.0 mph - 0.00 in   Overcast
3:15 AM 3.2 °F -15.3 °F -2.2 °F 78% 30.16 in 8.0 mi North 15.0 mph - 0.00 in   Overcast
3:35 AM 3.2 °F -15.9 °F -4.0 °F 72% 30.15 in 7.0 mi North 16.1 mph - 0.00 in   Mostly Cloudy
3:55 AM 1.4 °F -18.2 °F -4.0 °F 78% 30.16 in 10.0 mi North 16.1 mph - 0.00 in   Overcast
4:15 AM 1.4 °F -17.6 °F -4.0 °F 78% 30.14 in 10.0 mi North 15.0 mph - 0.00 in   Mostly Cloudy
4:35 AM 1.4 °F -17.6 °F -5.8 °F 72% 30.15 in 5.0 mi North 15.0 mph - 0.00 in   Mostly Cloudy
4:55 AM 1.4 °F -18.8 °F -5.8 °F 72% 30.14 in 7.0 mi North 17.3 mph - 0.00 in   Overcast
5:15 AM -0.4 °F -19.2 °F -5.8 °F 78% 30.15 in 9.0 mi North 13.8 mph - 0.00 in   Overcast
5:35 AM -0.4 °F -21.2 °F -7.6 °F 72% 30.15 in 10.0 mi North 17.3 mph - 0.00 in   Mostly Cloudy
5:55 AM -0.4 °F -18.4 °F -7.6 °F 72% 30.16 in 10.0 mi North 12.7 mph - 0.00 in   Mostly Cloudy
6:15 AM -2.2 °F -19.9 °F -7.6 °F 78% 30.17 in 10.0 mi North 11.5 mph - 0.00 in   Scattered Clouds
6:35 AM -2.2 °F -18.9 °F -9.4 °F 71% 30.18 in 10.0 mi NNW 10.4 mph - 0.00 in   Partly Cloudy
6:55 AM -4.0 °F -21.2 °F -9.4 °F 78% 30.19 in 10.0 mi NNW 10.4 mph - 0.00 in   Partly Cloudy
7:15 AM -4.0 °F -22.1 °F -9.4 °F 78% 30.20 in 10.0 mi North 11.5 mph - 0.00 in   Mostly Cloudy
7:35 AM -4.0 °F -23.0 °F -9.4 °F 78% 30.20 in 10.0 mi North 12.7 mph - 0.00 in   Scattered Clouds
7:55 AM -4.0 °F -22.1 °F -9.4 °F 78% 30.21 in 10.0 mi North 11.5 mph - 0.00 in   Partly Cloudy
8:15 AM -4.0 °F -20.2 °F -11.2 °F 71% 30.21 in 10.0 mi North 9.2 mph - 0.00 in   Clear
8:35 AM -5.8 °F -23.4 °F -11.2 °F 77% 30.23 in 10.0 mi North 10.4 mph - 0.00 in   Clear
8:55 AM -4.0 °F -21.2 °F - N/A% 30.23 in 10.0 mi North 10.4 mph - 0.00 in   Clear
9:15 AM -4.0 °F -22.1 °F -11.2 °F 71% 30.24 in 10.0 mi North 11.5 mph - 0.00 in   Clear
9:35 AM -4.0 °F -21.2 °F -11.2 °F 71% 30.25 in 10.0 mi North 10.4 mph - 0.00 in   Clear
9:55 AM -4.0 °F -23.0 °F - N/A% 30.25 in 10.0 mi North 12.7 mph - 0.00 in   Clear
10:15 AM -4.0 °F -22.1 °F -11.2 °F 71% 30.26 in 10.0 mi North 11.5 mph - 0.00 in   Clear
10:35 AM -2.2 °F -22.2 °F -9.4 °F 71% 30.25 in 10.0 mi North 15.0 mph - 0.00 in   Clear
10:55 AM -2.2 °F -19.9 °F -9.4 °F 71% 30.26 in 10.0 mi North 11.5 mph - 0.00 in   Clear
11:15 AM -0.4 °F -16.7 °F -9.4 °F 66% 30.27 in 10.0 mi North 10.4 mph - 0.00 in   Clear
11:35 AM -0.4 °F -18.4 °F -9.4 °F 66% 30.26 in 10.0 mi North 12.7 mph - 0.00 in   Clear
11:55 AM -0.4 °F -19.2 °F -9.4 °F 66% 30.26 in 10.0 mi North 13.8 mph - 0.00 in   Clear
12:15 PM -0.4 °F -16.7 °F -9.4 °F 66% 30.26 in 10.0 mi North 10.4 mph - 0.00 in   Clear
12:35 PM -0.4 °F -17.6 °F -9.4 °F 66% 30.26 in 10.0 mi North 11.5 mph - 0.00 in   Clear
12:55 PM 1.4 °F -14.5 °F -7.6 °F 66% 30.25 in 9.0 mi North 10.4 mph - 0.00 in   Clear
1:15 PM 1.4 °F -14.5 °F -7.6 °F 66% 30.25 in 10.0 mi North 10.4 mph - 0.00 in   Clear
1:35 PM 1.4 °F -15.3 °F -7.6 °F 66% 30.25 in 10.0 mi NNW 11.5 mph - 0.00 in   Clear
1:55 PM 1.4 °F -14.5 °F -7.6 °F 66% 30.25 in 10.0 mi North 10.4 mph - 0.00 in   Clear
2:15 PM 1.4 °F -15.3 °F -7.6 °F 66% 30.25 in 10.0 mi NNW 11.5 mph - 0.00 in   Clear
2:35 PM 3.2 °F -13.1 °F -5.8 °F 66% 30.26 in 10.0 mi NNW 11.5 mph - 0.00 in   Clear
2:55 PM 3.2 °F -12.2 °F -5.8 °F 66% 30.26 in 10.0 mi North 10.4 mph - 0.00 in   Clear
3:15 PM 3.2 °F -12.2 °F -5.8 °F 66% 30.26 in 10.0 mi NNW 10.4 mph - 0.00 in   Clear
3:35 PM 3.2 °F -12.2 °F -5.8 °F 66% 30.27 in 10.0 mi NNW 10.4 mph - 0.00 in   Clear
3:55 PM 3.2 °F -10.3 °F -5.8 °F 66% 30.27 in 10.0 mi North 8.1 mph - 0.00 in   Clear
4:15 PM 3.2 °F -9.1 °F -5.8 °F 66% 30.28 in 10.0 mi NNW 6.9 mph - 0.00 in   Clear
4:35 PM 1.4 °F -12.5 °F -7.6 °F 66% 30.28 in 10.0 mi NNW 8.1 mph - 0.00 in   Clear
4:55 PM 1.4 °F -13.5 °F -7.6 °F 66% 30.29 in 10.0 mi NNW 9.2 mph - 0.00 in   Clear
5:15 PM -0.4 °F -13.4 °F -7.6 °F 72% 30.30 in 10.0 mi NW 6.9 mph - 0.00 in   Clear
5:35 PM -0.4 °F -13.4 °F -7.6 °F 72% 30.30 in 10.0 mi NW 6.9 mph - 0.00 in   Clear
5:55 PM -0.4 °F -15.7 °F -9.4 °F 66% 30.31 in 10.0 mi NNW 9.2 mph - 0.00 in   Clear
6:15 PM -0.4 °F -15.7 °F -9.4 °F 66% 30.31 in 10.0 mi NNW 9.2 mph - 0.00 in   Clear
6:35 PM -0.4 °F -14.7 °F -7.6 °F 72% 30.32 in 10.0 mi NNW 8.1 mph - 0.00 in   Clear
6:55 PM -0.4 °F -15.7 °F -7.6 °F 72% 30.32 in 10.0 mi NNW 9.2 mph - 0.00 in   Clear
7:15 PM -0.4 °F -16.7 °F -7.6 °F 72% 30.33 in 10.0 mi NNW 10.4 mph - 0.00 in   Clear
7:35 PM -0.4 °F -16.7 °F -7.6 °F 72% 30.33 in 10.0 mi NNW 10.4 mph - 0.00 in   Clear
7:55 PM -0.4 °F -17.6 °F -7.6 °F 72% 30.33 in 10.0 mi NNW 11.5 mph - 0.00 in   Clear
8:15 PM -0.4 °F -16.7 °F -7.6 °F 72% 30.34 in 10.0 mi NNW 10.4 mph - 0.00 in   Clear
8:35 PM -0.4 °F -17.6 °F -7.6 °F 72% 30.34 in 10.0 mi NNW 11.5 mph - 0.00 in   Clear
8:55 PM -0.4 °F -16.7 °F -7.6 °F 72% 30.35 in 10.0 mi NNW 10.4 mph - 0.00 in   Clear
9:15 PM -0.4 °F -16.7 °F -9.4 °F 66% 30.35 in 10.0 mi NNW 10.4 mph - 0.00 in   Clear
9:35 PM -2.2 °F -18.0 °F -9.4 °F 71% 30.36 in 10.0 mi NNW 9.2 mph - 0.00 in   Clear
9:55 PM -2.2 °F -16.8 °F -9.4 °F 71% 30.36 in 10.0 mi NNW 8.1 mph - 0.00 in   Clear
10:15 PM -4.0 °F -19.0 °F -9.4 °F 78% 30.37 in 10.0 mi NW 8.1 mph - 0.00 in   Clear
10:35 PM -4.0 °F -19.0 °F - N/A% 30.37 in 10.0 mi NW 8.1 mph - 0.00 in   Clear
10:55 PM -4.0 °F -16.3 °F -9.4 °F 78% 30.38 in 10.0 mi WNW 5.8 mph - 0.00 in   Clear
11:15 PM -5.8 °F -21.2 °F -13.0 °F 71% 30.37 in 10.0 mi NW 8.1 mph - 0.00 in   Clear
11:35 PM -4.0 °F -20.2 °F -11.2 °F 71% 30.38 in 10.0 mi NW 9.2 mph - 0.00 in   Clear
11:55 PM -4.0 °F -20.2 °F -9.4 °F 78% 30.38 in 10.0 mi NW 9.2 mph - 0.00 in   Clear